Le Ponant — FGZZ — position and weather

sailwx.info

Track history (hours):
 
Tides and Currents Weather Stations Pressure Air Temp Water Temp Dewpoint Dewpoint Depression Visibility Wind Speed Wind Dir Waves Ship Positions

Le Ponant

Operator: Compangy des Iles du Ponant

Last reported at 2019-Aug-24 07:13 UTC. Time now 2019-Aug-24 07:37 UTC.
Position N 38°28' E 014°58'.

Length 84 m; draft 4.2 m.

Type: Passenger vessel. MMSI: 227186000.

Date/timePositionNaut miles runAvg speedWind from/ knotsBaromVisibWave heightAir tempDewpointWater temp
2019-Aug-24 07:13N 38°28' E 014°58'0 0.0
2019-Aug-24 06:29N 38°28' E 014°58'0 0.1
2019-Aug-24 05:58N 38°28' E 014°58'1 2.8
2019-Aug-24 05:27N 38°28' E 014°59'3 6.6
2019-Aug-24 04:59N 38°29' E 015°03'2 4.9
2019-Aug-24 04:30N 38°28' E 015°06'3 6.8
2019-Aug-24 04:00N 38°24' E 015°06'2 3.8
2019-Aug-24 03:30N 38°22' E 015°06'3 6.7
2019-Aug-24 03:00N 38°26' E 015°06'3 6.9
2019-Aug-24 02:30N 38°29' E 015°07'3 6.6
2019-Aug-24 02:00N 38°32' E 015°08'3 6.7
2019-Aug-24 01:30N 38°35' E 015°11'2 3.9
2019-Aug-24 01:00N 38°35' E 015°13'4 6.6
2019-Aug-24 00:24N 38°33' E 015°17'3 6.4
2019-Aug-23 23:53N 38°31' E 015°20'3 6.3
2019-Aug-23 23:29N 38°29' E 015°23'3 6.3
2019-Aug-23 23:00N 38°27' E 015°26'3 6.1
2019-Aug-23 22:30N 38°26' E 015°29'3 6.3
2019-Aug-23 22:00N 38°24' E 015°32'3 6.9
2019-Aug-23 21:30N 38°21' E 015°35'4 6.9
2019-Aug-23 21:00N 38°19' E 015°39'4 6.0
2019-Aug-23 20:21N 38°15' E 015°40'3 9.2
2019-Aug-23 20:00N 38°13' E 015°37'5 9.3
2019-Aug-23 19:30N 38°09' E 015°37'4 7.5
2019-Aug-23 19:00N 38°05' E 015°36'4 7.2
2019-Aug-23 18:30N 38°02' E 015°35'9 7.4
2019-Aug-23 17:17N 37°56' E 015°26'5 7.6
2019-Aug-23 16:38N 37°53' E 015°21'114 4.8
2019-Aug-22 17:05N 36°03' E 014°42'1 9.1
2019-Aug-22 17:00N 36°03' E 014°41'5 9.1
2019-Aug-22 16:30N 35°59' E 014°37'4 8.8
2019-Aug-22 16:00N 35°56' E 014°33'1 0.1
2019-Aug-22 05:23N 35°55' E 014°33'117 4.8
2019-Aug-21 04:54N 37°46' E 015°20'3 6.4
2019-Aug-21 04:30N 37°48' E 015°22'5 9.2
2019-Aug-21 03:58N 37°52' E 015°26'4 9.0
2019-Aug-21 03:30N 37°56' E 015°28'5 9.1
2019-Aug-21 03:00N 37°60' E 015°30'5 9.2
2019-Aug-21 02:30N 38°04' E 015°32'510.0
2019-Aug-21 02:00N 38°09' E 015°34'510.4
2019-Aug-21 01:30N 38°14' E 015°36'5 9.5
2019-Aug-21 01:00N 38°17' E 015°40'5 9.5
2019-Aug-21 00:30N 38°21' E 015°37'5 9.6
2019-Aug-21 00:00N 38°25' E 015°33'5 9.6
2019-Aug-20 23:28N 38°29' E 015°29'5 9.8
2019-Aug-20 23:00N 38°33' E 015°26'5 9.6
2019-Aug-20 22:29N 38°37' E 015°22'6 9.2
2019-Aug-20 21:49N 38°41' E 015°16'6 1.3
2019-Aug-20 17:07N 38°47' E 015°15'1 6.6
2019-Aug-20 17:00N 38°47' E 015°14'2 1.5
2019-Aug-20 15:50N 38°47' E 015°12'1 1.8
2019-Aug-20 15:06N 38°46' E 015°10'2 2.0
2019-Aug-20 14:11N 38°48' E 015°10'3 6.1
2019-Aug-20 13:44N 38°45' E 015°10'2 8.6
2019-Aug-20 13:28N 38°43' E 015°10'4 8.8
2019-Aug-20 12:58N 38°38' E 015°08'4 8.6
2019-Aug-20 12:30N 38°35' E 015°05'5 9.1
2019-Aug-20 12:00N 38°31' E 015°02'4 8.5
2019-Aug-20 11:30N 38°28' E 014°58'1 1.0
2019-Aug-20 10:57N 38°28' E 014°58'0 0.0
2019-Aug-20 10:23N 38°28' E 014°58'0 0.0
2019-Aug-20 09:57N 38°28' E 014°58'0 0.0
2019-Aug-20 09:15N 38°28' E 014°58'0 0.0
2019-Aug-20 08:40N 38°28' E 014°58'0 0.0
2019-Aug-20 08:13N 38°28' E 014°58'0 0.0
2019-Aug-20 07:57N 38°28' E 014°58'0 0.0
2019-Aug-20 07:15N 38°28' E 014°58'0 0.0
2019-Aug-20 07:00N 38°28' E 014°58'0 0.0
2019-Aug-20 06:31N 38°28' E 014°58'0 0.1
2019-Aug-20 05:53N 38°28' E 014°58'1 2.6
2019-Aug-20 05:29N 38°28' E 014°59'3 6.1
2019-Aug-20 05:00N 38°31' E 014°60'4 7.7
2019-Aug-20 04:26N 38°36' E 014°59'4 8.6
2019-Aug-20 04:00N 38°39' E 014°58'105 9.4
2019-Aug-19 16:51N 40°22' E 014°33'411.7
2019-Aug-19 16:29N 40°27' E 014°32'612.1
2019-Aug-19 16:00N 40°32' E 014°31'4 9.0
2019-Aug-19 15:30N 40°37' E 014°31'3 0.2
2019-Aug-18 20:19N 40°36' E 014°35'3 8.3
2019-Aug-18 20:00N 40°35' E 014°32'4 8.1
2019-Aug-18 19:30N 40°33' E 014°27'4 8.4
2019-Aug-18 19:00N 40°31' E 014°22'5 8.7
2019-Aug-18 18:29N 40°32' E 014°16'6 8.4
2019-Aug-18 17:49N 40°32' E 014°09'3 8.9
2019-Aug-18 17:30N 40°33' E 014°05'5 9.0
2019-Aug-18 17:00N 40°34' E 013°59'5 9.1
2019-Aug-18 16:30N 40°35' E 013°54'5 9.1
2019-Aug-18 16:00N 40°37' E 013°48'5 9.2
2019-Aug-18 15:30N 40°38' E 013°42'5 9.3
2019-Aug-18 15:00N 40°40' E 013°36'5 9.3
2019-Aug-18 14:30N 40°41' E 013°31'6 9.1
2019-Aug-18 13:52N 40°44' E 013°24'4 9.2
2019-Aug-18 13:23N 40°45' E 013°18'4 9.1
2019-Aug-18 13:00N 40°46' E 013°14'14 6.9
2019-Aug-18 10:59N 40°54' E 012°58'0 0.0
2019-Aug-18 10:19N 40°54' E 012°58'0 0.0
2019-Aug-18 09:55N 40°54' E 012°58'0 0.0
2019-Aug-18 08:30N 40°54' E 012°58'0 0.0
2019-Aug-18 07:52N 40°54' E 012°58'0 0.3
2019-Aug-18 06:30N 40°54' E 012°59'39 8.9
2019-Aug-18 02:06N 40°58' E 012°07'62 9.5
2019-Aug-17 19:30N 41°10' E 010°46'63 9.8
2019-Aug-17 13:06N 41°21' E 009°24'1 9.1
2019-Aug-17 12:57N 41°21' E 009°22'4 9.7
2019-Aug-17 12:30N 41°19' E 009°17'18 1.7
2019-Aug-17 01:56N 41°33' E 009°32'7 7.5
2019-Aug-17 00:59N 41°39' E 009°37'27 8.0
2019-Aug-16 21:37N 42°05' E 009°46'2 9.6
2019-Aug-16 21:22N 42°07' E 009°47'6 9.4
2019-Aug-16 20:42N 42°13' E 009°49'3 9.5
2019-Aug-16 20:24N 42°16' E 009°50'4 9.4
2019-Aug-16 20:00N 42°20' E 009°52'5 9.3
2019-Aug-16 19:30N 42°24' E 009°53'7 9.1
2019-Aug-16 18:44N 42°31' E 009°56'2 9.2
2019-Aug-16 18:28N 42°33' E 009°57'4 9.2
2019-Aug-16 18:00N 42°37' E 009°58'5 9.0
2019-Aug-16 17:26N 42°42' E 009°60'5 9.4
2019-Aug-16 16:56N 42°47' E 010°02'510.3
2019-Aug-16 16:29N 42°50' E 010°06'4 9.1
2019-Aug-16 16:00N 42°51' E 010°12'5 9.3
2019-Aug-16 15:30N 42°50' E 010°19'3 5.2
2019-Aug-16 15:00N 42°48' E 010°21'0 0.0
2019-Aug-16 14:30N 42°48' E 010°21'1 1.7
2019-Aug-16 14:00N 42°49' E 010°20'0 0.1
2019-Aug-16 12:25N 42°49' E 010°20'0 0.0
2019-Aug-16 11:41N 42°49' E 010°20'0 0.0
2019-Aug-16 09:33N 42°49' E 010°20'0 0.0
2019-Aug-16 08:45N 42°49' E 010°20'0 0.0
2019-Aug-16 08:27N 42°49' E 010°20'33 8.0
2019-Aug-16 04:18N 43°11' E 009°45'6 9.2
2019-Aug-16 03:42N 43°12' E 009°38'2 9.1
2019-Aug-16 03:30N 43°13' E 009°35'8 9.2
2019-Aug-16 02:35N 43°16' E 009°25'210.3
2019-Aug-16 02:26N 43°16' E 009°22'1510.4
2019-Aug-16 00:59N 43°20' E 009°03'611.1
2019-Aug-16 00:25N 43°22' E 008°54'510.6
2019-Aug-15 23:58N 43°23' E 008°48'510.1
2019-Aug-15 23:28N 43°25' E 008°41'22 9.3
2019-Aug-15 21:08N 43°29' E 008°12'2 8.7
2019-Aug-15 20:51N 43°30' E 008°09'3 8.4
2019-Aug-15 20:29N 43°30' E 008°05'4 8.1
2019-Aug-15 20:00N 43°31' E 007°59'4 8.1
2019-Aug-15 19:30N 43°32' E 007°54'4 8.2
2019-Aug-15 19:01N 43°33' E 007°49'4 8.2
2019-Aug-15 18:30N 43°34' E 007°43'4 8.2
2019-Aug-15 18:01N 43°36' E 007°38'4 8.5
2019-Aug-15 17:30N 43°37' E 007°32'4 8.6
2019-Aug-15 17:01N 43°38' E 007°26'4 8.6
2019-Aug-15 16:31N 43°39' E 007°21'2 4.7
2019-Aug-15 16:01N 43°41' E 007°18'1 2.2
2019-Aug-15 15:30N 43°42' E 007°17'0 0.0
2019-Aug-15 15:00N 43°42' E 007°17'0 0.0
2019-Aug-15 14:29N 43°42' E 007°17'0 0.0
2019-Aug-15 13:58N 43°42' E 007°17'0 0.0
2019-Aug-15 13:28N 43°42' E 007°17'0 0.0
2019-Aug-15 12:56N 43°42' E 007°17'0 0.0
2019-Aug-15 12:26N 43°42' E 007°17'0 0.0
2019-Aug-15 11:59N 43°42' E 007°17'0 0.0
2019-Aug-15 11:30N 43°42' E 007°17'0 0.0
2019-Aug-15 10:55N 43°42' E 007°17'0 0.0
2019-Aug-15 10:28N 43°42' E 007°17'0 0.0
2019-Aug-15 09:58N 43°42' E 007°17'0 0.0
2019-Aug-15 09:27N 43°42' E 007°17'0 0.0
2019-Aug-15 09:00N 43°42' E 007°17'0 0.0
2019-Aug-15 08:26N 43°42' E 007°17'0 0.0
2019-Aug-15 07:55N 43°42' E 007°17'0 0.0
2019-Aug-15 07:28N 43°42' E 007°17'0 0.0
2019-Aug-15 06:58N 43°42' E 007°17'0 0.0
2019-Aug-15 06:27N 43°42' E 007°17'0 0.0
2019-Aug-15 05:59N 43°42' E 007°17'0 0.0
2019-Aug-15 05:23N 43°42' E 007°17'0 0.9
2019-Aug-15 05:00N 43°41' E 007°17'3 5.2
2019-Aug-15 04:30N 43°39' E 007°18'3 6.5
2019-Aug-15 04:00N 43°36' E 007°21'4 7.6
2019-Aug-15 03:30N 43°34' E 007°24'4 7.6
2019-Aug-15 03:00N 43°31' E 007°28'4 8.1
2019-Aug-15 02:30N 43°28' E 007°32'4 8.5
2019-Aug-15 02:00N 43°26' E 007°37'4 8.6
2019-Aug-15 01:30N 43°23' E 007°41'4 8.5
2019-Aug-15 01:00N 43°20' E 007°45'4 8.6
2019-Aug-15 00:30N 43°17' E 007°50'4 8.7
2019-Aug-15 00:00N 43°15' E 007°55'4 8.5
2019-Aug-14 23:30N 43°12' E 007°60'4 8.4
2019-Aug-14 23:00N 43°10' E 008°04'4 8.4
2019-Aug-14 22:30N 43°07' E 008°09'4 8.4
2019-Aug-14 21:58N 43°05' E 008°14'4 7.8
2019-Aug-14 21:30N 43°02' E 008°18'4 8.3
2019-Aug-14 21:00N 42°60' E 008°22'5 8.8
2019-Aug-14 20:29N 42°57' E 008°27'5 9.5
2019-Aug-14 20:00N 42°54' E 008°32'4 8.2
2019-Aug-14 19:30N 42°51' E 008°36'3 6.0
2019-Aug-14 19:00N 42°48' E 008°38'3 5.8
2019-Aug-14 18:30N 42°46' E 008°40'3 5.6
2019-Aug-14 18:00N 42°43' E 008°41'3 5.6
2019-Aug-14 17:30N 42°40' E 008°42'3 6.5
2019-Aug-14 17:00N 42°38' E 008°44'4 7.6
2019-Aug-14 16:30N 42°34' E 008°46'0 0.5
2019-Aug-14 16:00N 42°34' E 008°46'0 0.0
2019-Aug-14 15:20N 42°34' E 008°46'0 0.0
2019-Aug-14 14:57N 42°34' E 008°46'0 0.0
2019-Aug-14 14:28N 42°34' E 008°46'0 0.0
2019-Aug-14 13:55N 42°34' E 008°46'0 0.0
2019-Aug-14 13:30N 42°34' E 008°46'0 0.0
2019-Aug-14 12:51N 42°34' E 008°46'0 0.0
2019-Aug-14 12:09N 42°34' E 008°46'0 0.0
2019-Aug-14 11:53N 42°34' E 008°46'0 0.0
2019-Aug-14 10:31N 42°34' E 008°46'0 0.1
2019-Aug-14 10:29N 42°34' E 008°46'0 0.0
2019-Aug-14 09:59N 42°34' E 008°46'0 0.0
2019-Aug-14 08:25N 42°34' E 008°46'0 0.0
2019-Aug-14 07:53N 42°34' E 008°46'0 0.0
2019-Aug-14 07:29N 42°34' E 008°46'  
Track history (hours):
 
Tides and Currents Weather Stations Pressure Air Temp Water Temp Dewpoint Dewpoint Depression Visibility Wind Speed Wind Dir Waves Ship Positions

Le Ponant

Operator: Compangy des Iles du Ponant

Last reported at 2019-Aug-24 07:13 UTC. Time now 2019-Aug-24 07:37 UTC.
Position N 38°28' E 014°58'.

Length 84 m; draft 4.2 m.

Type: Passenger vessel. MMSI: 227186000.

Date/timePositionNaut miles runAvg speedWind from/ knotsBaromVisibWave heightAir tempDewpointWater temp
2019-Aug-24 07:13N 38°28' E 014°58'0 0.0
2019-Aug-24 06:29N 38°28' E 014°58'0 0.1
2019-Aug-24 05:58N 38°28' E 014°58'1 2.8
2019-Aug-24 05:27N 38°28' E 014°59'3 6.6
2019-Aug-24 04:59N 38°29' E 015°03'2 4.9
2019-Aug-24 04:30N 38°28' E 015°06'3 6.8
2019-Aug-24 04:00N 38°24' E 015°06'2 3.8
2019-Aug-24 03:30N 38°22' E 015°06'3 6.7
2019-Aug-24 03:00N 38°26' E 015°06'3 6.9
2019-Aug-24 02:30N 38°29' E 015°07'3 6.6
2019-Aug-24 02:00N 38°32' E 015°08'3 6.7
2019-Aug-24 01:30N 38°35' E 015°11'2 3.9
2019-Aug-24 01:00N 38°35' E 015°13'4 6.6
2019-Aug-24 00:24N 38°33' E 015°17'3 6.4
2019-Aug-23 23:53N 38°31' E 015°20'3 6.3
2019-Aug-23 23:29N 38°29' E 015°23'3 6.3
2019-Aug-23 23:00N 38°27' E 015°26'3 6.1
2019-Aug-23 22:30N 38°26' E 015°29'3 6.3
2019-Aug-23 22:00N 38°24' E 015°32'3 6.9
2019-Aug-23 21:30N 38°21' E 015°35'4 6.9
2019-Aug-23 21:00N 38°19' E 015°39'4 6.0
2019-Aug-23 20:21N 38°15' E 015°40'3 9.2
2019-Aug-23 20:00N 38°13' E 015°37'5 9.3
2019-Aug-23 19:30N 38°09' E 015°37'4 7.5
2019-Aug-23 19:00N 38°05' E 015°36'4 7.2
2019-Aug-23 18:30N 38°02' E 015°35'9 7.4
2019-Aug-23 17:17N 37°56' E 015°26'5 7.6
2019-Aug-23 16:38N 37°53' E 015°21'114 4.8
2019-Aug-22 17:05N 36°03' E 014°42'1 9.1
2019-Aug-22 17:00N 36°03' E 014°41'5 9.1
2019-Aug-22 16:30N 35°59' E 014°37'4 8.8
2019-Aug-22 16:00N 35°56' E 014°33'1 0.1
2019-Aug-22 05:23N 35°55' E 014°33'117 4.8
2019-Aug-21 04:54N 37°46' E 015°20'3 6.4
2019-Aug-21 04:30N 37°48' E 015°22'5 9.2
2019-Aug-21 03:58N 37°52' E 015°26'4 9.0
2019-Aug-21 03:30N 37°56' E 015°28'5 9.1
2019-Aug-21 03:00N 37°60' E 015°30'5 9.2
2019-Aug-21 02:30N 38°04' E 015°32'510.0
2019-Aug-21 02:00N 38°09' E 015°34'510.4
2019-Aug-21 01:30N 38°14' E 015°36'5 9.5
2019-Aug-21 01:00N 38°17' E 015°40'5 9.5
2019-Aug-21 00:30N 38°21' E 015°37'5 9.6
2019-Aug-21 00:00N 38°25' E 015°33'5 9.6
2019-Aug-20 23:28N 38°29' E 015°29'5 9.8
2019-Aug-20 23:00N 38°33' E 015°26'5 9.6
2019-Aug-20 22:29N 38°37' E 015°22'6 9.2
2019-Aug-20 21:49N 38°41' E 015°16'6 1.3
2019-Aug-20 17:07N 38°47' E 015°15'1 6.6
2019-Aug-20 17:00N 38°47' E 015°14'2 1.5
2019-Aug-20 15:50N 38°47' E 015°12'1 1.8
2019-Aug-20 15:06N 38°46' E 015°10'2 2.0
2019-Aug-20 14:11N 38°48' E 015°10'3 6.1
2019-Aug-20 13:44N 38°45' E 015°10'2 8.6
2019-Aug-20 13:28N 38°43' E 015°10'4 8.8
2019-Aug-20 12:58N 38°38' E 015°08'4 8.6
2019-Aug-20 12:30N 38°35' E 015°05'5 9.1
2019-Aug-20 12:00N 38°31' E 015°02'4 8.5
2019-Aug-20 11:30N 38°28' E 014°58'1 1.0
2019-Aug-20 10:57N 38°28' E 014°58'0 0.0
2019-Aug-20 10:23N 38°28' E 014°58'0 0.0
2019-Aug-20 09:57N 38°28' E 014°58'0 0.0
2019-Aug-20 09:15N 38°28' E 014°58'0 0.0
2019-Aug-20 08:40N 38°28' E 014°58'0 0.0
2019-Aug-20 08:13N 38°28' E 014°58'0 0.0
2019-Aug-20 07:57N 38°28' E 014°58'0 0.0
2019-Aug-20 07:15N 38°28' E 014°58'0 0.0
2019-Aug-20 07:00N 38°28' E 014°58'0 0.0
2019-Aug-20 06:31N 38°28' E 014°58'0 0.1
2019-Aug-20 05:53N 38°28' E 014°58'1 2.6
2019-Aug-20 05:29N 38°28' E 014°59'3 6.1
2019-Aug-20 05:00N 38°31' E 014°60'4 7.7
2019-Aug-20 04:26N 38°36' E 014°59'4 8.6
2019-Aug-20 04:00N 38°39' E 014°58'105 9.4
2019-Aug-19 16:51N 40°22' E 014°33'411.7
2019-Aug-19 16:29N 40°27' E 014°32'612.1
2019-Aug-19 16:00N 40°32' E 014°31'4 9.0
2019-Aug-19 15:30N 40°37' E 014°31'3 0.2
2019-Aug-18 20:19N 40°36' E 014°35'3 8.3
2019-Aug-18 20:00N 40°35' E 014°32'4 8.1
2019-Aug-18 19:30N 40°33' E 014°27'4 8.4
2019-Aug-18 19:00N 40°31' E 014°22'5 8.7
2019-Aug-18 18:29N 40°32' E 014°16'6 8.4
2019-Aug-18 17:49N 40°32' E 014°09'3 8.9
2019-Aug-18 17:30N 40°33' E 014°05'5 9.0
2019-Aug-18 17:00N 40°34' E 013°59'5 9.1
2019-Aug-18 16:30N 40°35' E 013°54'5 9.1
2019-Aug-18 16:00N 40°37' E 013°48'5 9.2
2019-Aug-18 15:30N 40°38' E 013°42'5 9.3
2019-Aug-18 15:00N 40°40' E 013°36'5 9.3
2019-Aug-18 14:30N 40°41' E 013°31'6 9.1
2019-Aug-18 13:52N 40°44' E 013°24'4 9.2
2019-Aug-18 13:23N 40°45' E 013°18'4 9.1
2019-Aug-18 13:00N 40°46' E 013°14'14 6.9
2019-Aug-18 10:59N 40°54' E 012°58'0 0.0
2019-Aug-18 10:19N 40°54' E 012°58'0 0.0
2019-Aug-18 09:55N 40°54' E 012°58'0 0.0
2019-Aug-18 08:30N 40°54' E 012°58'0 0.0
2019-Aug-18 07:52N 40°54' E 012°58'0 0.3
2019-Aug-18 06:30N 40°54' E 012°59'39 8.9
2019-Aug-18 02:06N 40°58' E 012°07'62 9.5
2019-Aug-17 19:30N 41°10' E 010°46'63 9.8
2019-Aug-17 13:06N 41°21' E 009°24'1 9.1
2019-Aug-17 12:57N 41°21' E 009°22'4 9.7
2019-Aug-17 12:30N 41°19' E 009°17'18 1.7
2019-Aug-17 01:56N 41°33' E 009°32'7 7.5
2019-Aug-17 00:59N 41°39' E 009°37'27 8.0
2019-Aug-16 21:37N 42°05' E 009°46'2 9.6
2019-Aug-16 21:22N 42°07' E 009°47'6 9.4
2019-Aug-16 20:42N 42°13' E 009°49'3 9.5
2019-Aug-16 20:24N 42°16' E 009°50'4 9.4
2019-Aug-16 20:00N 42°20' E 009°52'5 9.3
2019-Aug-16 19:30N 42°24' E 009°53'7 9.1
2019-Aug-16 18:44N 42°31' E 009°56'2 9.2
2019-Aug-16 18:28N 42°33' E 009°57'4 9.2
2019-Aug-16 18:00N 42°37' E 009°58'5 9.0
2019-Aug-16 17:26N 42°42' E 009°60'5 9.4
2019-Aug-16 16:56N 42°47' E 010°02'510.3
2019-Aug-16 16:29N 42°50' E 010°06'4 9.1
2019-Aug-16 16:00N 42°51' E 010°12'5 9.3
2019-Aug-16 15:30N 42°50' E 010°19'3 5.2
2019-Aug-16 15:00N 42°48' E 010°21'0 0.0
2019-Aug-16 14:30N 42°48' E 010°21'1 1.7
2019-Aug-16 14:00N 42°49' E 010°20'0 0.1
2019-Aug-16 12:25N 42°49' E 010°20'0 0.0
2019-Aug-16 11:41N 42°49' E 010°20'0 0.0
2019-Aug-16 09:33N 42°49' E 010°20'0 0.0
2019-Aug-16 08:45N 42°49' E 010°20'0 0.0
2019-Aug-16 08:27N 42°49' E 010°20'33 8.0
2019-Aug-16 04:18N 43°11' E 009°45'6 9.2
2019-Aug-16 03:42N 43°12' E 009°38'2 9.1
2019-Aug-16 03:30N 43°13' E 009°35'8 9.2
2019-Aug-16 02:35N 43°16' E 009°25'210.3
2019-Aug-16 02:26N 43°16' E 009°22'1510.4
2019-Aug-16 00:59N 43°20' E 009°03'611.1
2019-Aug-16 00:25N 43°22' E 008°54'510.6
2019-Aug-15 23:58N 43°23' E 008°48'510.1
2019-Aug-15 23:28N 43°25' E 008°41'22 9.3
2019-Aug-15 21:08N 43°29' E 008°12'2 8.7
2019-Aug-15 20:51N 43°30' E 008°09'3 8.4
2019-Aug-15 20:29N 43°30' E 008°05'4 8.1
2019-Aug-15 20:00N 43°31' E 007°59'4 8.1
2019-Aug-15 19:30N 43°32' E 007°54'4 8.2
2019-Aug-15 19:01N 43°33' E 007°49'4 8.2
2019-Aug-15 18:30N 43°34' E 007°43'4 8.2
2019-Aug-15 18:01N 43°36' E 007°38'4 8.5
2019-Aug-15 17:30N 43°37' E 007°32'4 8.6
2019-Aug-15 17:01N 43°38' E 007°26'4 8.6
2019-Aug-15 16:31N 43°39' E 007°21'2 4.7
2019-Aug-15 16:01N 43°41' E 007°18'1 2.2
2019-Aug-15 15:30N 43°42' E 007°17'0 0.0
2019-Aug-15 15:00N 43°42' E 007°17'0 0.0
2019-Aug-15 14:29N 43°42' E 007°17'0 0.0
2019-Aug-15 13:58N 43°42' E 007°17'0 0.0
2019-Aug-15 13:28N 43°42' E 007°17'0 0.0
2019-Aug-15 12:56N 43°42' E 007°17'0 0.0
2019-Aug-15 12:26N 43°42' E 007°17'0 0.0
2019-Aug-15 11:59N 43°42' E 007°17'0 0.0
2019-Aug-15 11:30N 43°42' E 007°17'0 0.0
2019-Aug-15 10:55N 43°42' E 007°17'0 0.0
2019-Aug-15 10:28N 43°42' E 007°17'0 0.0
2019-Aug-15 09:58N 43°42' E 007°17'0 0.0
2019-Aug-15 09:27N 43°42' E 007°17'0 0.0
2019-Aug-15 09:00N 43°42' E 007°17'0 0.0
2019-Aug-15 08:26N 43°42' E 007°17'0 0.0
2019-Aug-15 07:55N 43°42' E 007°17'0 0.0
2019-Aug-15 07:28N 43°42' E 007°17'0 0.0
2019-Aug-15 06:58N 43°42' E 007°17'0 0.0
2019-Aug-15 06:27N 43°42' E 007°17'0 0.0
2019-Aug-15 05:59N 43°42' E 007°17'0 0.0
2019-Aug-15 05:23N 43°42' E 007°17'0 0.9
2019-Aug-15 05:00N 43°41' E 007°17'3 5.2
2019-Aug-15 04:30N 43°39' E 007°18'3 6.5
2019-Aug-15 04:00N 43°36' E 007°21'4 7.6
2019-Aug-15 03:30N 43°34' E 007°24'4 7.6
2019-Aug-15 03:00N 43°31' E 007°28'4 8.1
2019-Aug-15 02:30N 43°28' E 007°32'4 8.5
2019-Aug-15 02:00N 43°26' E 007°37'4 8.6
2019-Aug-15 01:30N 43°23' E 007°41'4 8.5
2019-Aug-15 01:00N 43°20' E 007°45'4 8.6
2019-Aug-15 00:30N 43°17' E 007°50'4 8.7
2019-Aug-15 00:00N 43°15' E 007°55'4 8.5
2019-Aug-14 23:30N 43°12' E 007°60'4 8.4
2019-Aug-14 23:00N 43°10' E 008°04'4 8.4
2019-Aug-14 22:30N 43°07' E 008°09'4 8.4
2019-Aug-14 21:58N 43°05' E 008°14'4 7.8
2019-Aug-14 21:30N 43°02' E 008°18'4 8.3
2019-Aug-14 21:00N 42°60' E 008°22'5 8.8
2019-Aug-14 20:29N 42°57' E 008°27'5 9.5
2019-Aug-14 20:00N 42°54' E 008°32'4 8.2
2019-Aug-14 19:30N 42°51' E 008°36'3 6.0
2019-Aug-14 19:00N 42°48' E 008°38'3 5.8
2019-Aug-14 18:30N 42°46' E 008°40'3 5.6
2019-Aug-14 18:00N 42°43' E 008°41'3 5.6
2019-Aug-14 17:30N 42°40' E 008°42'3 6.5
2019-Aug-14 17:00N 42°38' E 008°44'4 7.6
2019-Aug-14 16:30N 42°34' E 008°46'0 0.5
2019-Aug-14 16:00N 42°34' E 008°46'0 0.0
2019-Aug-14 15:20N 42°34' E 008°46'0 0.0
2019-Aug-14 14:57N 42°34' E 008°46'0 0.0
2019-Aug-14 14:28N 42°34' E 008°46'0 0.0
2019-Aug-14 13:55N 42°34' E 008°46'0 0.0
2019-Aug-14 13:30N 42°34' E 008°46'0 0.0
2019-Aug-14 12:51N 42°34' E 008°46'0 0.0
2019-Aug-14 12:09N 42°34' E 008°46'0 0.0
2019-Aug-14 11:53N 42°34' E 008°46'0 0.0
2019-Aug-14 10:31N 42°34' E 008°46'0 0.1
2019-Aug-14 10:29N 42°34' E 008°46'0 0.0
2019-Aug-14 09:59N 42°34' E 008°46'0 0.0
2019-Aug-14 08:25N 42°34' E 008°46'0 0.0
2019-Aug-14 07:53N 42°34' E 008°46'0 0.0
2019-Aug-14 07:29N 42°34' E 008°46'  

Dump ship's entire track history